Time;durP1;ratioP1;P1;durP2;ratioP2;P2;SDS_P1;SDS_P2;PMS_P1;PMS_P2;Temp;Humidity;BMP_temperature;BMP_pressure;BME280_temperature;BME280_humidity;BME280_pressure;Samples;Min_cycle;Max_cycle;Signal;HPM_P1;HPM_P2
2023/10/11 00:06:34;;;;;;;47.28;24.12;;;;;;;9.75;100.00;101134.94;5594012;31;33933;-69
2023/10/11 00:09:38;;;;;;;38.00;24.00;;;;;;;9.74;100.00;101125.31;5593924;31;33385;-69
2023/10/11 00:12:41;;;;;;;47.53;24.95;;;;;;;9.73;100.00;101117.53;5593976;31;33803;-69
2023/10/11 00:15:49;;;;;;;44.45;23.52;;;;;;;9.64;100.00;101134.25;5580167;31;33809;-69
2023/10/11 00:18:55;;;;;;;51.30;25.00;;;;;;;9.58;100.00;101125.91;5593881;31;34396;-68
2023/10/11 00:21:59;;;;;;;46.45;24.60;;;;;;;9.58;100.00;101122.44;5589631;31;33895;-68
2023/10/11 00:25:02;;;;;;;46.60;24.75;;;;;;;9.60;100.00;101118.66;5590282;31;34462;-68
2023/10/11 00:28:08;;;;;;;41.15;24.12;;;;;;;9.54;100.00;101115.72;5576492;31;34489;-69
2023/10/11 00:31:19;;;;;;;42.78;24.10;;;;;;;9.48;100.00;101114.50;5590111;31;33922;-68
2023/10/11 00:34:23;;;;;;;48.00;25.33;;;;;;;9.45;100.00;101122.72;5590256;31;33819;-68
2023/10/11 00:37:27;;;;;;;47.90;25.12;;;;;;;9.39;100.00;101110.03;5590539;31;34581;-68
2023/10/11 00:40:33;;;;;;;44.42;25.50;;;;;;;9.35;100.00;101119.25;5590219;31;33966;-68
2023/10/11 00:43:39;;;;;;;47.03;23.58;;;;;;;9.30;100.00;101110.91;5590036;31;33809;-69
2023/10/11 00:46:57;;;;;;;46.65;25.40;;;;;;;9.31;100.00;101122.34;5590009;31;33800;-68
2023/10/11 00:50:00;;;;;;;43.63;24.55;;;;;;;9.29;100.00;101119.00;5590198;31;34469;-68
2023/10/11 00:53:04;;;;;;;48.67;25.40;;;;;;;9.25;100.00;101120.25;5576393;31;35341;-69
2023/10/11 00:56:07;;;;;;;45.38;24.87;;;;;;;9.26;100.00;101106.88;5590203;31;33803;-68
2023/10/11 00:59:14;;;;;;;44.83;24.85;;;;;;;9.24;100.00;101110.66;5576199;31;33920;-68
2023/10/11 01:02:19;;;;;;;46.50;25.42;;;;;;;9.23;100.00;101114.28;5589918;31;35001;-68
2023/10/11 01:05:22;;;;;;;49.17;25.45;;;;;;;9.33;100.00;101118.59;5589947;31;33862;-68
2023/10/11 01:08:26;;;;;;;45.95;25.08;;;;;;;9.33;100.00;101105.34;5589937;31;33811;-68
2023/10/11 01:11:29;;;;;;;47.25;26.08;;;;;;;9.36;100.00;101115.63;5589540;31;34134;-68
2023/10/11 01:14:56;;;;;;;43.25;24.30;;;;;;;9.42;100.00;101114.25;5589750;31;34961;-68
2023/10/11 01:17:56;;;;;;;45.35;24.77;;;;;;;9.52;100.00;101112.41;5589826;31;33899;-69
2023/10/11 01:21:03;;;;;;;44.08;25.45;;;;;;;9.50;100.00;101111.69;5589762;31;34530;-69
2023/10/11 01:24:09;;;;;;;44.15;25.58;;;;;;;9.50;100.00;101106.41;5589850;31;33910;-68
2023/10/11 01:27:13;;;;;;;48.03;25.35;;;;;;;9.50;100.00;101117.00;5589790;31;34694;-68
2023/10/11 01:30:17;;;;;;;43.13;24.58;;;;;;;9.47;100.00;101112.00;5589719;31;34075;-68
2023/10/11 01:33:20;;;;;;;45.75;24.92;;;;;;;9.49;100.00;101110.03;5589383;31;34511;-69
2023/10/11 01:36:23;;;;;;;43.97;25.00;;;;;;;9.52;100.00;101109.75;5589777;31;33823;-68
2023/10/11 01:39:26;;;;;;;50.70;25.52;;;;;;;9.51;100.00;101111.56;5589617;31;34596;-69
2023/10/11 01:42:28;;;;;;;42.60;25.40;;;;;;;9.54;100.00;101110.44;5576088;31;34791;-68
2023/10/11 01:45:32;;;;;;;41.50;25.15;;;;;;;9.54;100.00;101113.91;5589590;31;33817;-69
2023/10/11 01:48:35;;;;;;;41.50;24.58;;;;;;;9.58;100.00;101112.66;5589501;31;34602;-69
2023/10/11 01:51:39;;;;;;;42.92;24.23;;;;;;;9.64;100.00;101108.59;5589438;31;33916;-69
2023/10/11 01:54:42;;;;;;;42.65;25.48;;;;;;;9.67;100.00;101115.44;5589523;31;34045;-68
2023/10/11 01:57:45;;;;;;;42.17;24.60;;;;;;;9.68;100.00;101117.12;5589895;31;33772;-69
2023/10/11 02:00:53;;;;;;;42.28;24.83;;;;;;;9.68;100.00;101115.31;5589432;31;34051;-68
2023/10/11 02:03:58;;;;;;;42.65;25.12;;;;;;;9.68;100.00;101114.47;5589849;31;34336;-68
2023/10/11 02:07:02;;;;;;;44.17;24.05;;;;;;;9.77;100.00;101109.13;5589709;31;34415;-68
2023/10/11 02:10:12;;;;;;;41.60;23.45;;;;;;;9.68;100.00;101103.88;5589476;31;33793;-69
2023/10/11 02:13:15;;;;;;;45.25;25.02;;;;;;;9.65;100.00;101102.31;5589645;31;33947;-69
2023/10/11 02:16:18;;;;;;;45.58;24.10;;;;;;;9.56;100.00;101104.03;5589348;31;34474;-69
2023/10/11 02:19:24;;;;;;;40.05;23.75;;;;;;;9.51;100.00;101114.22;5589122;31;33760;-68
2023/10/11 02:22:27;;;;;;;44.35;25.02;;;;;;;9.44;100.00;101123.69;5589323;31;33798;-69
2023/10/11 02:25:34;;;;;;;41.50;24.65;;;;;;;9.45;100.00;101121.87;5589202;31;34419;-69
2023/10/11 02:28:39;;;;;;;43.60;24.95;;;;;;;9.50;100.00;101119.66;5589164;31;33954;-69
2023/10/11 02:31:41;;;;;;;45.15;24.87;;;;;;;9.51;100.00;101130.09;5575277;31;34003;-69
2023/10/11 02:34:49;;;;;;;42.45;24.00;;;;;;;9.55;100.00;101128.00;5575419;31;33866;-69
2023/10/11 02:37:55;;;;;;;46.72;25.92;;;;;;;9.57;100.00;101128.72;5589079;31;33842;-69
2023/10/11 02:40:58;;;;;;;49.75;25.40;;;;;;;9.62;100.00;101128.28;5589027;31;34488;-69
2023/10/11 02:44:02;;;;;;;46.63;25.42;;;;;;;9.67;100.00;101131.34;5587864;31;33993;-69
2023/10/11 02:47:08;;;;;;;39.80;23.95;;;;;;;9.70;100.00;101136.34;5588880;31;34638;-69
2023/10/11 02:50:11;;;;;;;47.00;25.50;;;;;;;9.78;100.00;101116.09;5589028;31;33891;-69
2023/10/11 02:53:21;;;;;;;41.20;24.75;;;;;;;9.80;100.00;101102.69;5575045;31;33723;-69
2023/10/11 02:56:24;;;;;;;48.65;24.48;;;;;;;9.85;100.00;101113.69;5589120;31;33876;-69
2023/10/11 02:59:27;;;;;;;41.72;24.42;;;;;;;9.88;100.00;101110.75;5589175;31;33863;-70
2023/10/11 03:02:30;;;;;;;46.45;25.33;;;;;;;9.90;100.00;101116.75;5588558;31;34060;-69
2023/10/11 03:05:37;;;;;;;39.35;24.55;;;;;;;9.88;100.00;101113.41;5588479;31;34097;-69
2023/10/11 03:08:44;;;;;;;44.08;23.80;;;;;;;9.87;100.00;101122.34;5588595;31;34038;-69
2023/10/11 03:11:46;;;;;;;40.42;24.15;;;;;;;9.97;100.00;101123.97;5588298;31;34076;-69
2023/10/11 03:14:54;;;;;;;40.90;23.85;;;;;;;10.18;100.00;101133.53;5588417;31;35033;-68
2023/10/11 03:17:58;;;;;;;36.53;22.75;;;;;;;9.99;100.00;101139.72;5588211;31;34120;-68
2023/10/11 03:21:17;;;;;;;38.53;23.00;;;;;;;10.04;100.00;101140.97;5588036;31;33554;-69
2023/10/11 03:24:21;;;;;;;42.70;24.35;;;;;;;9.99;100.00;101127.31;5588131;31;34775;-69
2023/10/11 03:27:27;;;;;;;45.65;24.33;;;;;;;9.90;100.00;101128.19;5587958;31;34140;-69
2023/10/11 03:30:35;;;;;;;40.63;23.38;;;;;;;9.88;100.00;101116.88;5587906;31;34089;-69
2023/10/11 03:33:40;;;;;;;41.88;24.08;;;;;;;9.89;100.00;101115.91;5587869;31;34189;-69
2023/10/11 03:36:51;;;;;;;42.08;23.05;;;;;;;9.84;100.00;101120.81;5587933;31;33972;-69
2023/10/11 03:39:57;;;;;;;35.35;22.50;;;;;;;9.89;100.00;101125.66;5587949;31;34178;-69
2023/10/11 03:43:14;;;;;;;44.72;23.62;;;;;;;9.90;100.00;101130.84;5587735;31;34220;-69
2023/10/11 03:46:22;;;;;;;35.78;22.70;;;;;;;9.94;100.00;101120.78;5573792;31;34226;-70
2023/10/11 03:52:33;;;;;;;34.10;22.60;;;;;;;9.92;100.00;101128.84;5587861;31;34195;-69
2023/10/11 03:55:45;;;;;;;33.90;22.75;;;;;;;10.02;100.00;101131.50;5589071;31;34834;-69
2023/10/11 03:58:50;;;;;;;33.78;21.62;;;;;;;10.01;100.00;101129.81;5577030;31;34121;-69
2023/10/11 04:01:54;;;;;;;38.22;21.92;;;;;;;10.03;100.00;101133.97;5576539;31;34104;-68
2023/10/11 04:04:57;;;;;;;37.08;22.58;;;;;;;10.01;100.00;101127.19;5590249;31;34140;-68
2023/10/11 04:08:11;;;;;;;36.95;21.90;;;;;;;9.98;100.00;101122.97;5590641;31;33054;-69
2023/10/11 04:11:29;;;;;;;35.53;22.30;;;;;;;10.04;100.00;101116.28;5590005;31;34124;-68
2023/10/11 04:14:45;;;;;;;37.75;22.40;;;;;;;10.09;100.00;101121.13;5590215;31;34694;-68
2023/10/11 04:17:49;;;;;;;35.22;22.00;;;;;;;10.13;100.00;101110.09;5589976;31;34849;-68
2023/10/11 04:20:59;;;;;;;38.08;21.52;;;;;;;10.03;100.00;101111.94;5590171;31;34677;-69
2023/10/11 04:24:06;;;;;;;33.72;21.20;;;;;;;9.98;100.00;101120.34;5590055;31;34070;-68
2023/10/11 04:30:40;;;;;;;35.55;21.58;;;;;;;10.06;100.00;101132.88;5589858;31;34172;-69
2023/10/11 04:33:45;;;;;;;35.28;21.40;;;;;;;10.19;100.00;101132.56;5575996;31;34147;-69
2023/10/11 04:36:55;;;;;;;40.12;22.25;;;;;;;10.23;100.00;101131.28;5590437;31;33824;-68
2023/10/11 04:40:14;;;;;;;32.22;21.42;;;;;;;10.32;100.00;101135.69;5576147;31;34006;-69
2023/10/11 04:43:23;;;;;;;40.75;21.37;;;;;;;10.40;100.00;101138.47;5589886;31;34012;-69
2023/10/11 04:46:30;;;;;;;31.50;20.15;;;;;;;10.41;100.00;101135.63;5589581;31;34766;-69
2023/10/11 04:49:34;;;;;;;32.20;21.00;;;;;;;10.48;100.00;101138.56;5588839;31;35418;-69
2023/10/11 04:52:37;;;;;;;35.28;19.95;;;;;;;10.51;100.00;101140.88;5589713;31;34676;-69
2023/10/11 04:55:46;;;;;;;32.95;19.92;;;;;;;10.72;100.00;101133.50;5589558;31;34082;-68
2023/10/11 04:58:54;;;;;;;31.60;19.62;;;;;;;10.65;100.00;101134.28;5575990;31;34013;-68
2023/10/11 05:01:58;;;;;;;32.13;20.00;;;;;;;10.69;100.00;101139.13;5589405;31;34383;-68
2023/10/11 05:05:05;;;;;;;36.08;20.62;;;;;;;10.69;100.00;101138.28;5589619;31;34237;-68
2023/10/11 05:08:20;;;;;;;38.85;21.50;;;;;;;10.70;100.00;101143.41;5588789;31;33998;-68
2023/10/11 05:11:36;;;;;;;33.88;20.65;;;;;;;10.77;100.00;101141.84;5589512;31;34273;-69
2023/10/11 05:17:50;;;;;;;46.10;24.20;;;;;;;10.92;100.00;101131.53;5589326;31;34392;-68
2023/10/11 05:21:03;;;;;;;55.70;26.67;;;;;;;10.98;100.00;101133.59;5589246;31;34260;-68
2023/10/11 05:24:29;;;;;;;58.58;29.87;;;;;;;11.18;100.00;101143.06;5589319;31;33975;-68
2023/10/11 05:30:37;;;;;;;61.65;29.98;;;;;;;11.20;100.00;101170.31;5589497;31;34776;-69
2023/10/11 05:34:29;;;;;;;58.72;29.30;;;;;;;11.24;100.00;101169.00;5562707;31;34186;-68
2023/10/11 05:50:54;;;;;;;58.42;29.17;;;;;;;11.65;100.00;101156.06;5588918;31;33981;-68
2023/10/11 05:53:59;;;;;;;68.25;30.98;;;;;;;11.71;100.00;101171.38;5575007;31;34155;-69
2023/10/11 05:57:05;;;;;;;67.72;33.10;;;;;;;11.62;100.00;101162.50;5588610;31;34706;-69
2023/10/11 06:00:23;;;;;;;70.53;32.97;;;;;;;11.86;100.00;101161.84;5575194;31;34838;-69
2023/10/11 06:03:28;;;;;;;70.20;32.70;;;;;;;11.91;100.00;101169.37;5575130;31;34800;-69
2023/10/11 06:06:38;;;;;;;66.68;31.80;;;;;;;11.82;100.00;101170.28;5588753;31;34151;-69
2023/10/11 06:09:43;;;;;;;68.05;31.52;;;;;;;12.08;100.00;101173.78;5588809;31;34602;-69
2023/10/11 06:12:46;;;;;;;66.97;33.05;;;;;;;12.15;100.00;101169.53;5588587;31;34787;-69
2023/10/11 06:15:58;;;;;;;72.55;32.83;;;;;;;12.26;100.00;101179.84;5575095;31;34124;-67
2023/10/11 06:19:16;;;;;;;75.00;32.97;;;;;;;12.18;100.00;101177.16;5587579;31;34374;-67
2023/10/11 06:22:21;;;;;;;66.97;32.70;;;;;;;12.24;100.00;101173.03;5588167;31;34130;-68
2023/10/11 06:29:07;;;;;;;65.93;33.63;;;;;;;12.32;100.00;101178.41;5509142;32;35011;-69
2023/10/11 06:32:11;;;;;;;66.12;32.30;;;;;;;12.49;100.00;101175.63;5508438;32;34357;-69
2023/10/11 06:35:26;;;;;;;64.65;33.00;;;;;;;12.52;100.00;101179.81;5509168;32;34119;-69
2023/10/11 06:38:41;;;;;;;71.78;34.40;;;;;;;12.43;100.00;101186.94;5509280;32;34555;-69
2023/10/11 06:41:50;;;;;;;73.32;34.28;;;;;;;12.49;100.00;101183.63;5508962;32;35488;-68
2023/10/11 06:44:59;;;;;;;77.43;35.45;;;;;;;12.50;100.00;101193.28;5509133;32;34123;-68
2023/10/11 06:48:09;;;;;;;84.55;35.78;;;;;;;12.52;100.00;101191.28;5508696;32;33932;-68
2023/10/11 06:51:13;;;;;;;97.53;37.45;;;;;;;12.61;100.00;101197.47;5508688;32;34758;-68
2023/10/11 06:54:16;;;;;;;100.07;39.67;;;;;;;12.70;100.00;101190.34;5496147;32;34204;-68
2023/10/11 06:57:22;;;;;;;90.82;38.13;;;;;;;12.64;100.00;101197.16;5483365;32;34827;-68
2023/10/11 07:00:28;;;;;;;108.10;39.72;;;;;;;12.65;100.00;101190.84;5568806;31;34001;-68
2023/10/11 07:03:38;;;;;;;105.00;39.00;;;;;;;12.73;100.00;101184.72;5588384;31;34111;-68
2023/10/11 07:06:42;;;;;;;94.60;37.45;;;;;;;12.96;100.00;101183.94;5574468;31;33967;-68
2023/10/11 07:09:56;;;;;;;94.00;37.15;;;;;;;13.14;100.00;101194.47;5587949;31;34833;-69
2023/10/11 07:13:23;;;;;;;94.85;37.78;;;;;;;13.30;100.00;101197.16;5588053;31;34973;-68
2023/10/11 07:16:31;;;;;;;93.95;38.47;;;;;;;13.56;100.00;101196.16;5588159;31;34035;-68
2023/10/11 07:19:36;;;;;;;95.03;37.88;;;;;;;13.85;100.00;101194.62;5588132;31;34000;-68
2023/10/11 07:22:39;;;;;;;98.62;38.30;;;;;;;13.69;100.00;101199.16;5587946;31;34180;-68
2023/10/11 07:25:45;;;;;;;99.03;37.90;;;;;;;13.53;100.00;101192.00;5574138;31;34004;-68
2023/10/11 07:28:52;;;;;;;95.25;38.45;;;;;;;13.79;100.00;101203.34;5587726;31;34251;-69
2023/10/11 07:31:59;;;;;;;100.68;39.03;;;;;;;13.76;100.00;101200.16;5589951;31;34641;-68
2023/10/11 07:35:17;;;;;;;96.00;37.75;;;;;;;13.48;100.00;101194.34;5590081;31;33986;-67
2023/10/11 07:38:21;;;;;;;99.07;38.83;;;;;;;13.55;100.00;101198.00;5577926;31;34748;-67
2023/10/11 07:41:29;;;;;;;101.07;37.50;;;;;;;13.81;100.00;101200.47;5590432;31;34077;-67
2023/10/11 07:44:36;;;;;;;106.35;41.65;;;;;;;13.59;100.00;101198.50;5589879;31;34576;-68
2023/10/11 07:47:45;;;;;;;111.25;40.42;;;;;;;13.91;100.00;101199.28;5589906;31;34652;-68
2023/10/11 07:50:49;;;;;;;107.03;41.27;;;;;;;14.17;100.00;101200.91;5590349;31;34182;-68
2023/10/11 07:53:52;;;;;;;100.82;38.85;;;;;;;14.25;100.00;101204.38;5590137;31;34013;-67
2023/10/11 07:57:00;;;;;;;105.43;39.53;;;;;;;14.29;100.00;101204.88;5590147;31;34766;-68
2023/10/11 08:00:06;;;;;;;94.18;39.58;;;;;;;13.83;100.00;101207.31;5589740;31;35155;-67
2023/10/11 08:03:17;;;;;;;99.68;39.55;;;;;;;13.86;100.00;101200.81;5590018;31;34047;-68
2023/10/11 08:06:24;;;;;;;101.65;41.33;;;;;;;14.01;100.00;101196.44;5589592;31;34239;-69
2023/10/11 08:09:46;;;;;;;96.90;39.45;;;;;;;14.19;100.00;101198.88;5576408;31;34744;-68
2023/10/11 08:12:49;;;;;;;100.62;39.20;;;;;;;14.52;100.00;101197.00;5590161;31;34725;-68
2023/10/11 08:15:59;;;;;;;90.85;38.85;;;;;;;14.65;100.00;101190.09;5589883;31;33993;-68
2023/10/11 08:19:04;;;;;;;90.45;37.22;;;;;;;14.75;100.00;101196.03;5589866;31;34872;-68
2023/10/11 08:22:14;;;;;;;76.15;33.97;;;;;;;15.11;100.00;101200.81;5589810;31;34283;-68
2023/10/11 08:25:25;;;;;;;72.78;34.95;;;;;;;15.01;100.00;101192.19;5589629;31;34101;-68
2023/10/11 08:28:29;;;;;;;78.40;35.85;;;;;;;15.32;100.00;101195.66;5575794;31;35509;-68
2023/10/11 08:34:37;;;;;;;71.55;34.70;;;;;;;15.51;100.00;101205.06;5589788;31;33848;-68
2023/10/11 08:37:40;;;;;;;67.43;34.92;;;;;;;15.51;100.00;101203.25;5589761;31;34171;-68
2023/10/11 08:40:43;;;;;;;69.47;34.83;;;;;;;15.73;100.00;101200.72;5589344;31;34071;-68
2023/10/11 08:43:49;;;;;;;69.45;34.80;;;;;;;15.88;100.00;101199.72;5589343;31;34007;-68
2023/10/11 08:46:52;;;;;;;69.72;35.55;;;;;;;14.95;100.00;101200.94;5575741;31;34186;-68
2023/10/11 08:49:54;;;;;;;71.82;36.33;;;;;;;14.99;100.00;101203.09;5589417;31;34180;-68
2023/10/11 08:52:57;;;;;;;67.15;35.13;;;;;;;15.37;100.00;101201.31;5589884;31;34141;-68
2023/10/11 08:56:00;;;;;;;68.62;37.17;;;;;;;15.73;100.00;101198.88;5589510;31;34687;-68
2023/10/11 08:59:03;;;;;;;70.93;36.10;;;;;;;15.80;100.00;101194.44;5589336;31;34007;-68
2023/10/11 09:02:08;;;;;;;64.95;35.20;;;;;;;16.27;100.00;101190.59;5589226;31;35250;-67
2023/10/11 09:05:32;;;;;;;65.60;34.80;;;;;;;16.41;100.00;101189.78;5589363;31;34233;-67
2023/10/11 09:08:36;;;;;;;62.05;34.10;;;;;;;16.72;100.00;101189.56;5577971;31;34683;-68
2023/10/11 09:11:52;;;;;;;61.85;33.33;;;;;;;17.13;100.00;101192.53;5589273;31;34112;-67
2023/10/11 09:14:59;;;;;;;55.50;32.50;;;;;;;17.16;100.00;101184.91;5589297;31;34684;-69
2023/10/11 09:18:14;;;;;;;58.40;33.60;;;;;;;17.17;100.00;101191.12;5589418;31;34103;-68
2023/10/11 09:21:18;;;;;;;56.63;34.83;;;;;;;16.86;100.00;101189.53;5589290;31;33994;-67
2023/10/11 09:24:25;;;;;;;60.10;35.28;;;;;;;16.58;100.00;101185.91;5589107;31;34627;-69
2023/10/11 09:27:42;;;;;;;61.50;35.75;;;;;;;15.91;100.00;101180.62;5576130;31;34475;-68
2023/10/11 09:30:45;;;;;;;58.55;36.15;;;;;;;15.95;100.00;101183.78;5575485;31;34954;-69
2023/10/11 09:33:51;;;;;;;59.22;35.35;;;;;;;16.21;100.00;101178.81;5588811;31;34201;-68
2023/10/11 09:36:56;;;;;;;53.40;32.70;;;;;;;16.14;100.00;101179.72;5589346;31;34181;-69
2023/10/11 09:40:07;;;;;;;59.95;36.15;;;;;;;16.21;100.00;101176.13;5575516;31;34109;-69
2023/10/11 09:43:16;;;;;;;56.35;34.25;;;;;;;16.29;100.00;101181.38;5589226;31;34846;-68
2023/10/11 09:46:25;;;;;;;59.92;34.22;;;;;;;15.74;100.00;101181.78;5589110;31;34099;-69
2023/10/11 09:49:31;;;;;;;59.05;33.08;;;;;;;15.99;100.00;101174.34;5590101;31;34750;-68
2023/10/11 09:52:36;;;;;;;52.97;32.05;;;;;;;15.82;100.00;101170.19;5576083;31;34675;-68
2023/10/11 09:55:57;;;;;;;52.10;31.58;;;;;;;16.14;100.00;101177.88;5575844;31;34139;-69
2023/10/11 09:59:34;;;;;;;52.47;32.50;;;;;;;16.16;100.00;101177.69;5575466;31;34116;-66
2023/10/11 10:02:44;;;;;;;50.90;31.48;;;;;;;16.44;100.00;101173.34;5575144;31;34817;-67
2023/10/11 10:06:10;;;;;;;48.95;30.98;;;;;;;16.58;100.00;101175.19;5588895;31;34163;-68
2023/10/11 10:09:23;;;;;;;47.97;28.87;;;;;;;16.80;100.00;101168.84;5588997;31;34776;-68
2023/10/11 10:12:40;;;;;;;48.92;27.87;;;;;;;16.84;100.00;101164.78;5588937;31;34976;-69
2023/10/11 10:15:49;;;;;;;44.50;26.25;;;;;;;17.01;100.00;101164.53;5588630;31;35150;-68
2023/10/11 10:19:13;;;;;;;;;;;;;;;17.20;100.00;101155.84;5575306;31;34776;-68
2023/10/11 10:22:17;;;;;;;38.65;24.52;;;;;;;17.13;100.00;101146.94;5588654;31;34460;-67
2023/10/11 10:25:20;;;;;;;37.75;23.15;;;;;;;17.35;100.00;101149.41;5588917;31;34156;-67
2023/10/11 10:28:34;;;;;;;37.63;23.55;;;;;;;17.40;100.00;101156.88;5588955;31;34049;-67
2023/10/11 10:32:04;;;;;;;36.05;21.40;;;;;;;17.45;100.00;101148.25;5588525;31;34276;-67
2023/10/11 10:35:18;;;;;;;33.28;21.40;;;;;;;17.63;100.00;101149.44;5588473;31;34173;-67
2023/10/11 10:38:22;;;;;;;31.55;20.58;;;;;;;17.55;100.00;101140.69;5588776;31;34256;-67
2023/10/11 10:41:37;;;;;;;35.15;18.90;;;;;;;17.49;100.00;101139.63;5588481;31;33688;-66
2023/10/11 10:44:49;;;;;;;32.13;18.65;;;;;;;17.46;100.00;101129.28;5588681;31;34119;-67
2023/10/11 10:47:52;;;;;;;26.00;16.33;;;;;;;17.95;100.00;101131.09;5574278;31;34751;-67
2023/10/11 10:51:07;;;;;;;28.10;16.85;;;;;;;18.09;100.00;101122.09;5588451;31;34214;-67
2023/10/11 10:54:21;;;;;;;28.98;15.82;;;;;;;18.47;100.00;101127.84;5588371;31;34136;-67
2023/10/11 10:57:25;;;;;;;25.85;14.20;;;;;;;19.43;100.00;101126.59;5576018;31;34639;-68
2023/10/11 11:00:33;;;;;;;21.48;13.38;;;;;;;22.79;100.00;101120.56;5588323;31;34067;-67
2023/10/11 11:03:36;;;;;;;26.87;13.30;;;;;;;23.07;88.68;101114.53;5574191;31;34748;-68
2023/10/11 11:06:47;;;;;;;22.62;12.13;;;;;;;24.29;81.42;101107.38;5587936;31;34113;-68
2023/10/11 11:09:54;;;;;;;15.85;9.77;;;;;;;27.53;60.70;101111.94;5588488;31;34263;-68
2023/10/11 11:12:57;;;;;;;21.52;9.90;;;;;;;27.24;56.50;101111.44;5588231;31;33992;-68
2023/10/11 11:16:00;;;;;;;17.30;9.05;;;;;;;29.23;51.21;101104.66;5587800;31;34121;-69
2023/10/11 11:19:16;;;;;;;19.33;8.38;;;;;;;29.87;48.76;101103.22;5587551;31;34022;-69
2023/10/11 11:22:22;;;;;;;19.52;8.05;;;;;;;30.83;45.84;101108.28;5574590;31;34007;-69
2023/10/11 11:28:29;;;;;;;11.02;7.95;;;;;;;27.92;52.44;101093.38;5587751;31;34078;-68
2023/10/11 11:31:59;;;;;;;17.87;8.13;;;;;;;29.18;48.46;101090.19;5587822;31;34134;-69
2023/10/11 11:35:09;;;;;;;18.05;7.72;;;;;;;30.89;44.49;101093.41;5573781;31;34179;-69
2023/10/11 11:38:20;;;;;;;15.13;7.55;;;;;;;30.14;44.85;101081.78;5587863;31;32362;-70
2023/10/11 11:41:25;;;;;;;16.10;7.70;;;;;;;29.57;47.34;101074.03;5574705;31;33930;-69
2023/10/11 11:44:31;;;;;;;17.37;7.68;;;;;;;30.48;44.76;101065.50;5587597;31;34053;-69
2023/10/11 11:47:34;;;;;;;13.43;7.53;;;;;;;30.42;45.09;101055.62;5573697;31;33928;-70
2023/10/11 11:50:39;;;;;;;12.93;7.07;;;;;;;29.22;48.65;101051.09;5574019;31;34088;-69
2023/10/11 11:53:45;;;;;;;23.95;7.65;;;;;;;32.02;42.55;101054.47;5587515;31;34128;-69
2023/10/11 11:56:54;;;;;;;16.87;6.85;;;;;;;31.46;42.48;101062.53;5587304;31;34694;-69
2023/10/11 11:59:57;;;;;;;14.87;6.82;;;;;;;31.64;42.67;101059.06;5574119;31;34115;-69
2023/10/11 12:03:04;;;;;;;19.08;7.93;;;;;;;30.63;44.81;101047.06;5573851;31;34746;-68
2023/10/11 12:06:23;;;;;;;16.13;7.77;;;;;;;28.56;48.31;101035.75;5587211;31;34779;-69
2023/10/11 12:09:32;;;;;;;20.85;7.68;;;;;;;31.40;44.01;101042.56;5573504;31;34708;-68
2023/10/11 12:12:53;;;;;;;16.60;7.78;;;;;;;31.45;42.76;101044.44;5587385;31;34885;-69
2023/10/11 12:15:56;;;;;;;19.02;7.18;;;;;;;31.34;43.15;101040.16;5588243;31;34122;-68
2023/10/11 12:19:00;;;;;;;19.52;8.05;;;;;;;30.39;45.64;101031.56;5590393;31;34089;-68
2023/10/11 12:22:05;;;;;;;16.12;7.80;;;;;;;27.86;51.35;101023.53;5589995;31;34139;-69
2023/10/11 12:25:12;;;;;;;16.02;7.20;;;;;;;27.13;55.76;101020.63;5589949;31;34748;-69
2023/10/11 12:28:16;;;;;;;18.00;7.95;;;;;;;26.17;60.33;101014.25;5589801;31;34772;-69
2023/10/11 12:31:19;;;;;;;17.75;7.50;;;;;;;24.67;69.52;101004.47;5589847;31;34191;-68
2023/10/11 12:34:25;;;;;;;19.60;6.82;;;;;;;25.17;72.83;100998.25;5589697;31;34698;-69
2023/10/11 12:37:28;;;;;;;17.27;6.97;;;;;;;25.12;69.96;100994.62;5575990;31;34748;-68
2023/10/11 12:40:34;;;;;;;17.98;6.80;;;;;;;24.13;77.48;100992.34;5576032;31;34775;-68
2023/10/11 12:43:37;;;;;;;15.18;6.90;;;;;;;23.74;77.29;100985.03;5590495;31;34254;-68
2023/10/11 12:46:40;;;;;;;18.45;6.10;;;;;;;23.23;86.14;100977.69;5589551;31;34932;-68
2023/10/11 12:49:44;;;;;;;12.18;5.65;;;;;;;23.24;84.01;100982.00;5576041;31;34299;-68
2023/10/11 12:52:52;;;;;;;10.88;5.72;;;;;;;22.96;86.10;100980.84;5575609;31;34193;-68
2023/10/11 12:55:55;;;;;;;18.00;5.70;;;;;;;22.87;87.55;100976.00;5589315;31;34158;-68
2023/10/11 12:58:58;;;;;;;20.02;5.82;;;;;;;22.95;89.21;100960.25;5589522;31;34980;-68
2023/10/11 13:02:04;;;;;;;15.88;5.18;;;;;;;23.16;85.91;100960.72;5575752;31;34106;-69
2023/10/11 13:05:07;;;;;;;14.85;5.47;;;;;;;23.00;83.37;100956.84;5589305;31;34074;-68
2023/10/11 13:08:14;;;;;;;11.93;5.57;;;;;;;23.04;86.01;100949.09;5589263;31;34789;-67
2023/10/11 13:11:21;;;;;;;12.70;5.32;;;;;;;23.18;86.90;100948.63;5589109;31;34273;-68
2023/10/11 13:14:25;;;;;;;16.05;5.07;;;;;;;22.95;91.63;100943.19;5589150;31;34289;-68
2023/10/11 13:17:28;;;;;;;11.73;5.03;;;;;;;22.85;84.43;100942.97;5589308;31;34155;-68
2023/10/11 13:20:31;;;;;;;11.65;4.78;;;;;;;22.94;88.71;100934.28;5589212;31;34043;-69
2023/10/11 13:23:34;;;;;;;13.82;4.68;;;;;;;22.95;88.39;100933.19;5588540;31;34029;-68
2023/10/11 13:26:43;;;;;;;13.95;4.97;;;;;;;23.02;83.10;100929.53;5588825;31;34801;-68
2023/10/11 13:29:47;;;;;;;13.80;4.80;;;;;;;22.91;84.74;100929.31;5588548;31;34058;-68
2023/10/11 13:32:57;;;;;;;21.15;5.05;;;;;;;22.80;82.65;100923.91;5589142;31;34742;-68
2023/10/11 13:36:05;;;;;;;11.43;4.82;;;;;;;22.71;85.18;100912.59;5588964;31;33989;-68
2023/10/11 13:42:42;;;;;;;11.63;5.00;;;;;;;22.94;86.15;100903.69;5576383;31;34081;-67
2023/10/11 13:45:56;;;;;;;14.80;4.50;;;;;;;22.93;85.50;100907.44;5589121;31;34224;-68
2023/10/11 13:49:09;;;;;;;17.83;5.25;;;;;;;22.78;86.08;100901.66;5575065;31;34065;-68
2023/10/11 13:52:12;;;;;;;14.80;5.18;;;;;;;22.89;86.12;100904.38;5574665;31;34051;-68
2023/10/11 13:55:15;;;;;;;14.35;5.07;;;;;;;22.88;84.93;100901.91;5588510;31;33980;-67
2023/10/11 13:58:19;;;;;;;20.70;5.68;;;;;;;22.70;90.49;100899.28;5588904;31;35073;-69
2023/10/11 14:04:48;;;;;;;15.93;6.05;;;;;;;22.30;87.86;100888.31;5588565;31;34221;-67
2023/10/11 14:07:51;;;;;;;8.38;4.47;;;;;;;22.34;95.32;100893.00;5574915;31;34520;-68
2023/10/11 14:10:54;;;;;;;11.75;4.97;;;;;;;22.33;89.15;100890.53;5588385;31;34089;-68
2023/10/11 14:14:00;;;;;;;17.67;4.60;;;;;;;22.44;90.56;100879.75;5587865;31;35018;-68
2023/10/11 14:17:05;;;;;;;17.62;5.20;;;;;;;22.46;92.90;100879.53;5587653;31;34920;-68
2023/10/11 14:20:18;;;;;;;19.12;5.40;;;;;;;22.62;87.19;100886.09;5588676;31;35058;-68
2023/10/11 14:23:27;;;;;;;15.48;4.53;;;;;;;22.69;87.39;100879.53;5587898;31;34250;-68
2023/10/11 14:26:33;;;;;;;17.50;5.37;;;;;;;22.63;90.20;100876.94;5588337;31;34015;-69
2023/10/11 14:29:39;;;;;;;14.30;4.90;;;;;;;22.76;86.59;100872.13;5587601;31;35427;-68
2023/10/11 14:32:44;;;;;;;14.27;4.68;;;;;;;22.90;85.67;100873.53;5587970;31;34190;-67
2023/10/11 14:35:48;;;;;;;13.68;4.28;;;;;;;22.90;85.62;100876.25;5587571;31;34168;-68
2023/10/11 14:38:51;;;;;;;16.62;6.75;;;;;;;22.80;83.11;100869.81;5586409;31;34926;-68
2023/10/11 14:41:56;;;;;;;13.98;4.55;;;;;;;22.74;85.05;100871.56;5573952;31;34099;-68
2023/10/11 14:44:59;;;;;;;14.63;4.80;;;;;;;22.64;86.29;100865.91;5587956;31;34037;-68
2023/10/11 14:48:07;;;;;;;16.45;4.78;;;;;;;22.61;85.52;100863.63;5587186;31;34936;-67
2023/10/11 14:51:11;;;;;;;12.82;4.30;;;;;;;22.41;85.01;100863.97;5587729;31;34309;-67
2023/10/11 14:54:14;;;;;;;17.83;4.82;;;;;;;22.21;87.69;100854.56;5587387;31;34904;-67
2023/10/11 14:57:17;;;;;;;10.68;4.32;;;;;;;22.17;88.00;100861.50;5587136;31;34298;-67